createdAt,value
2023-10-11T00:00:40.820Z,100.00
2023-10-11T00:03:35.756Z,100.00
2023-10-11T00:06:06.602Z,100.00
2023-10-11T00:08:41.270Z,100.00
2023-10-11T00:11:11.220Z,100.00
2023-10-11T00:13:38.945Z,100.00
2023-10-11T00:16:10.691Z,100.00
2023-10-11T00:18:40.476Z,100.00
2023-10-11T00:21:33.521Z,100.00
2023-10-11T00:24:00.368Z,100.00
2023-10-11T00:26:27.054Z,100.00
2023-10-11T00:28:57.956Z,100.00
2023-10-11T00:31:24.528Z,100.00
2023-10-11T00:33:51.349Z,100.00
2023-10-11T00:36:22.379Z,100.00
2023-10-11T00:38:49.823Z,100.00
2023-10-11T00:41:22.844Z,100.00
2023-10-11T00:43:53.046Z,100.00
2023-10-11T00:46:25.799Z,100.00
2023-10-11T00:48:56.469Z,100.00
2023-10-11T00:51:31.885Z,100.00
2023-10-11T00:54:03.582Z,100.00
2023-10-11T00:56:33.474Z,100.00
2023-10-11T00:59:04.746Z,100.00
2023-10-11T01:01:34.432Z,100.00
2023-10-11T01:04:02.073Z,100.00
2023-10-11T01:06:30.020Z,100.00
2023-10-11T01:08:57.158Z,100.00
2023-10-11T01:11:24.586Z,100.00
2023-10-11T01:13:54.845Z,100.00
2023-10-11T01:16:27.986Z,100.00
2023-10-11T01:18:55.298Z,100.00
2023-10-11T01:21:22.221Z,100.00
2023-10-11T01:23:49.742Z,100.00
2023-10-11T01:26:16.467Z,100.00
2023-10-11T01:28:49.189Z,100.00
2023-10-11T01:31:18.231Z,100.00
2023-10-11T01:33:53.718Z,100.00
2023-10-11T01:36:23.117Z,100.00
2023-10-11T01:38:50.710Z,100.00
2023-10-11T01:41:24.064Z,100.00
2023-10-11T01:43:55.112Z,100.00
2023-10-11T01:46:28.097Z,100.00
2023-10-11T01:48:56.481Z,100.00
2023-10-11T01:51:30.079Z,100.00
2023-10-11T01:54:01.375Z,100.00
2023-10-11T01:56:29.103Z,100.00
2023-10-11T01:59:02.569Z,100.00
2023-10-11T02:01:41.238Z,100.00
2023-10-11T02:04:15.468Z,100.00
2023-10-11T02:06:43.070Z,100.00
2023-10-11T02:09:10.857Z,100.00
2023-10-11T02:11:42.773Z,100.00
2023-10-11T02:14:09.547Z,100.00
2023-10-11T02:16:37.534Z,100.00
2023-10-11T02:19:06.511Z,100.00
2023-10-11T02:21:37.891Z,100.00
2023-10-11T02:24:05.730Z,100.00
2023-10-11T02:26:35.232Z,100.00
2023-10-11T02:29:16.400Z,100.00
2023-10-11T02:31:43.415Z,100.00
2023-10-11T02:34:16.159Z,100.00
2023-10-11T02:36:44.433Z,100.00
2023-10-11T02:39:21.771Z,100.00
2023-10-11T02:41:58.866Z,100.00
2023-10-11T02:44:26.744Z,100.00
2023-10-11T02:46:54.337Z,100.00
2023-10-11T02:49:21.879Z,100.00
2023-10-11T02:51:54.174Z,100.00
2023-10-11T02:54:22.005Z,100.00
2023-10-11T02:56:49.228Z,100.00
2023-10-11T02:59:20.971Z,100.00
2023-10-11T03:02:00.630Z,100.00
2023-10-11T03:04:41.593Z,100.00
2023-10-11T03:07:24.678Z,100.00
2023-10-11T03:09:56.832Z,100.00
2023-10-11T03:12:36.104Z,100.00
2023-10-11T03:15:10.464Z,100.00
2023-10-11T03:17:45.408Z,100.00
2023-10-11T03:20:30.225Z,100.00
2023-10-11T03:23:01.599Z,100.00
2023-10-11T03:25:30.651Z,100.00
2023-10-11T03:27:57.520Z,100.00
2023-10-11T03:30:25.662Z,100.00
2023-10-11T03:32:52.662Z,100.00
2023-10-11T03:35:20.347Z,100.00
2023-10-11T03:38:00.098Z,100.00
2023-10-11T03:40:37.255Z,100.00
2023-10-11T03:43:17.676Z,100.00
2023-10-11T03:45:51.165Z,100.00
2023-10-11T03:48:21.327Z,100.00
2023-10-11T03:50:49.130Z,100.00
2023-10-11T03:53:16.991Z,100.00
2023-10-11T03:55:50.626Z,100.00
2023-10-11T03:58:35.063Z,100.00
2023-10-11T04:01:11.573Z,100.00
2023-10-11T04:03:41.325Z,100.00
2023-10-11T04:06:15.710Z,100.00
2023-10-11T04:09:02.443Z,100.00
2023-10-11T04:11:39.130Z,100.00
2023-10-11T04:14:25.053Z,100.00
2023-10-11T04:16:57.115Z,100.00
2023-10-11T04:19:24.814Z,100.00
2023-10-11T04:21:52.704Z,100.00
2023-10-11T04:24:22.529Z,100.00
2023-10-11T04:26:58.320Z,100.00
2023-10-11T04:29:32.600Z,100.00
2023-10-11T04:32:02.715Z,100.00
2023-10-11T04:34:33.264Z,100.00
2023-10-11T04:37:01.540Z,100.00
2023-10-11T04:39:48.024Z,100.00
2023-10-11T04:42:14.800Z,100.00
2023-10-11T04:44:48.269Z,100.00
2023-10-11T04:47:18.674Z,100.00
2023-10-11T04:49:46.232Z,100.00
2023-10-11T04:52:18.328Z,100.00
2023-10-11T04:54:55.296Z,100.00
2023-10-11T04:57:42.373Z,100.00
2023-10-11T05:00:12.020Z,100.00
2023-10-11T05:02:40.214Z,100.00
2023-10-11T05:05:12.200Z,100.00
2023-10-11T05:07:44.115Z,100.00
2023-10-11T05:10:26.723Z,100.00
2023-10-11T05:13:06.475Z,100.00
2023-10-11T05:15:44.834Z,100.00
2023-10-11T05:18:12.099Z,100.00
2023-10-11T05:20:41.598Z,100.00
2023-10-11T05:23:12.713Z,100.00
2023-10-11T05:25:57.643Z,100.00
2023-10-11T05:28:24.268Z,100.00
2023-10-11T05:31:07.737Z,100.00
2023-10-11T05:33:59.047Z,100.00
2023-10-11T05:36:44.024Z,100.00
2023-10-11T05:39:29.346Z,100.00
2023-10-11T05:42:14.692Z,100.00
2023-10-11T05:45:00.021Z,100.00
2023-10-11T05:47:44.974Z,100.00
2023-10-11T05:50:30.506Z,100.00
2023-10-11T05:52:57.140Z,100.00
2023-10-11T05:55:24.196Z,100.00
2023-10-11T05:57:51.819Z,100.00
2023-10-11T06:00:24.447Z,100.00
2023-10-11T06:02:53.248Z,100.00
2023-10-11T06:05:26.023Z,100.00
2023-10-11T06:08:02.231Z,100.00
2023-10-11T06:10:33.578Z,100.00
2023-10-11T06:13:00.187Z,100.00
2023-10-11T06:15:26.800Z,100.00
2023-10-11T06:17:56.294Z,100.00
2023-10-11T06:20:29.055Z,100.00
2023-10-11T06:22:56.703Z,100.00
2023-10-11T06:26:02.185Z,100.00
2023-10-11T06:28:32.549Z,100.00
2023-10-11T06:31:02.087Z,100.00
2023-10-11T06:33:28.860Z,100.00
2023-10-11T06:35:55.539Z,100.00
2023-10-11T06:38:30.985Z,100.00
2023-10-11T06:41:17.516Z,100.00
2023-10-11T06:43:48.220Z,100.00
2023-10-11T06:46:14.765Z,100.00
2023-10-11T06:48:41.330Z,100.00
2023-10-11T06:51:10.108Z,100.00
2023-10-11T06:53:37.276Z,100.00
2023-10-11T06:56:06.530Z,100.00
2023-10-11T06:58:45.132Z,100.00
2023-10-11T07:01:15.254Z,100.00
2023-10-11T07:03:43.401Z,100.00
2023-10-11T07:06:14.197Z,100.00
2023-10-11T07:08:54.862Z,100.00
2023-10-11T07:11:41.792Z,100.00
2023-10-11T07:14:15.688Z,100.00
2023-10-11T07:16:47.240Z,100.00
2023-10-11T07:19:16.865Z,100.00
2023-10-11T07:21:53.193Z,100.00
2023-10-11T07:24:33.127Z,100.00
2023-10-11T07:27:10.906Z,100.00
2023-10-11T07:29:50.917Z,100.00
2023-10-11T07:32:19.970Z,100.00
2023-10-11T07:34:49.165Z,100.00
2023-10-11T07:37:19.445Z,100.00
2023-10-11T07:39:48.427Z,100.00
2023-10-11T07:42:19.972Z,100.00
2023-10-11T07:44:51.577Z,100.00
2023-10-11T07:47:19.953Z,100.00
2023-10-11T07:49:46.952Z,100.00
2023-10-11T07:52:20.498Z,100.00
2023-10-11T07:54:47.499Z,100.00
2023-10-11T07:57:14.642Z,100.00
2023-10-11T07:59:42.565Z,95.11
2023-10-11T08:02:09.687Z,97.00
2023-10-11T08:04:45.476Z,100.00
2023-10-11T08:07:17.975Z,100.00
2023-10-11T08:09:47.892Z,100.00
2023-10-11T08:12:19.505Z,100.00
2023-10-11T08:14:47.389Z,100.00
2023-10-11T08:17:15.405Z,100.00
2023-10-11T08:19:45.848Z,100.00
2023-10-11T08:22:15.757Z,100.00
2023-10-11T08:24:58.512Z,100.00
2023-10-11T08:27:28.989Z,100.00
2023-10-11T08:30:15.490Z,100.00
2023-10-11T08:32:46.565Z,100.00
2023-10-11T08:35:33.185Z,100.00
2023-10-11T08:38:05.759Z,100.00
2023-10-11T08:40:38.654Z,100.00
2023-10-11T08:43:08.014Z,100.00
2023-10-11T08:45:49.738Z,100.00
2023-10-11T08:48:17.426Z,100.00
2023-10-11T08:50:54.734Z,100.00
2023-10-11T08:53:22.484Z,100.00
2023-10-11T08:55:57.491Z,100.00
2023-10-11T08:58:30.140Z,100.00
2023-10-11T09:00:59.784Z,100.00
2023-10-11T09:03:30.428Z,100.00
2023-10-11T09:06:00.304Z,100.00
2023-10-11T09:08:32.374Z,97.00
2023-10-11T09:11:33.009Z,100.00
2023-10-11T09:14:24.073Z,95.47
2023-10-11T09:16:52.371Z,89.17
2023-10-11T09:19:22.183Z,87.69
2023-10-11T09:22:04.762Z,81.59
2023-10-11T09:24:44.673Z,84.20
2023-10-11T09:27:18.050Z,80.92
2023-10-11T09:29:48.106Z,86.06
2023-10-11T09:32:28.315Z,77.03
2023-10-11T09:34:55.534Z,79.13
2023-10-11T09:37:22.152Z,81.02
2023-10-11T09:39:52.301Z,74.96
2023-10-11T09:42:23.606Z,75.46
2023-10-11T09:44:54.186Z,75.73
2023-10-11T09:47:20.793Z,79.03
2023-10-11T09:49:50.266Z,77.29
2023-10-11T09:52:19.581Z,79.54
2023-10-11T09:54:46.857Z,77.04
2023-10-11T09:57:26.432Z,72.68
2023-10-11T09:59:55.448Z,74.15
2023-10-11T10:02:30.059Z,73.89
2023-10-11T10:04:57.360Z,70.36
2023-10-11T10:07:44.009Z,73.20
2023-10-11T10:10:13.085Z,77.39
2023-10-11T10:12:55.568Z,71.50
2023-10-11T10:15:41.678Z,68.75
2023-10-11T10:18:14.010Z,64.86
2023-10-11T10:20:57.821Z,68.24
2023-10-11T10:23:27.613Z,63.87
2023-10-11T10:26:03.316Z,60.34
2023-10-11T10:28:46.793Z,59.40
2023-10-11T10:31:14.070Z,56.26
2023-10-11T10:33:42.214Z,59.02
2023-10-11T10:36:33.064Z,59.81
2023-10-11T10:38:59.796Z,52.42
2023-10-11T10:41:32.361Z,55.23
2023-10-11T10:44:07.758Z,55.58
2023-10-11T10:46:35.464Z,56.35
2023-10-11T10:49:05.359Z,56.74
2023-10-11T10:51:36.933Z,55.49
2023-10-11T10:54:14.243Z,53.99
2023-10-11T10:56:42.542Z,55.24
2023-10-11T10:59:13.429Z,56.17
2023-10-11T11:01:40.422Z,55.02
2023-10-11T11:04:10.862Z,56.48
2023-10-11T11:06:38.902Z,52.61
2023-10-11T11:09:42.731Z,53.71
2023-10-11T11:12:19.743Z,55.03
2023-10-11T11:14:56.660Z,54.01
2023-10-11T11:17:47.235Z,53.88
2023-10-11T11:20:15.608Z,54.59
2023-10-11T11:22:46.905Z,53.20
2023-10-11T11:25:28.961Z,52.53
2023-10-11T11:28:26.413Z,54.31
2023-10-11T11:30:53.066Z,52.80
2023-10-11T11:33:49.111Z,54.81
2023-10-11T11:36:32.714Z,54.52
2023-10-11T11:39:20.278Z,56.40
2023-10-11T11:41:59.442Z,54.36
2023-10-11T11:44:28.861Z,56.13
2023-10-11T11:46:57.101Z,55.48
2023-10-11T11:49:24.892Z,54.01
2023-10-11T11:51:52.911Z,55.37
2023-10-11T11:54:24.568Z,54.90
2023-10-11T11:56:55.761Z,57.12
2023-10-11T11:59:23.511Z,56.29
2023-10-11T12:01:54.338Z,53.52
2023-10-11T12:04:22.424Z,51.12
2023-10-11T12:06:49.739Z,53.10
2023-10-11T12:09:23.398Z,55.48
2023-10-11T12:11:54.923Z,55.03
2023-10-11T12:14:24.793Z,55.09
2023-10-11T12:16:51.797Z,51.50
2023-10-11T12:19:18.428Z,49.82
2023-10-11T12:21:45.326Z,48.64
2023-10-11T12:24:28.460Z,47.48
2023-10-11T12:26:59.403Z,49.24
2023-10-11T12:29:30.034Z,49.46
2023-10-11T12:31:56.934Z,49.70
2023-10-11T12:34:26.453Z,49.87
2023-10-11T12:36:54.496Z,49.14
2023-10-11T12:39:22.072Z,48.78
2023-10-11T12:41:50.484Z,48.78
2023-10-11T12:44:20.612Z,48.78
2023-10-11T12:46:52.442Z,48.83
2023-10-11T12:49:20.093Z,48.29
2023-10-11T12:51:48.073Z,48.27
2023-10-11T12:54:21.231Z,48.83
2023-10-11T12:56:48.325Z,48.72
2023-10-11T12:59:14.991Z,48.84
2023-10-11T13:01:51.562Z,48.99
2023-10-11T13:04:19.584Z,49.01
2023-10-11T13:06:53.098Z,48.16
2023-10-11T13:09:24.904Z,46.83
2023-10-11T13:11:57.564Z,45.95
2023-10-11T13:14:25.098Z,44.04
2023-10-11T13:16:53.749Z,44.06
2023-10-11T13:19:20.749Z,44.44
2023-10-11T13:21:54.298Z,45.10
2023-10-11T13:24:25.587Z,44.72
2023-10-11T13:26:53.538Z,44.82
2023-10-11T13:29:20.411Z,44.52
2023-10-11T13:31:57.855Z,43.97
2023-10-11T13:34:34.603Z,45.04
2023-10-11T13:37:04.726Z,45.59
2023-10-11T13:39:40.787Z,45.86
2023-10-11T13:42:16.014Z,45.93
2023-10-11T13:44:45.188Z,43.94
2023-10-11T13:47:13.504Z,44.23
2023-10-11T13:49:42.422Z,43.14
2023-10-11T13:52:10.266Z,43.30
2023-10-11T13:54:38.456Z,41.23
2023-10-11T13:57:12.633Z,42.16
2023-10-11T13:59:49.750Z,42.95
2023-10-11T14:02:38.542Z,39.85
2023-10-11T14:05:08.608Z,42.82
2023-10-11T14:07:41.915Z,41.23
2023-10-11T14:10:38.202Z,41.15
2023-10-11T14:13:12.464Z,38.66
2023-10-11T14:15:42.704Z,39.75
2023-10-11T14:18:16.375Z,40.56
2023-10-11T14:20:57.902Z,41.87
2023-10-11T14:23:29.210Z,39.13
2023-10-11T14:25:57.566Z,41.68
2023-10-11T14:28:28.002Z,42.21
2023-10-11T14:30:55.075Z,41.95
2023-10-11T14:33:22.827Z,42.05
2023-10-11T14:35:50.024Z,41.07
2023-10-11T14:38:20.652Z,43.47
2023-10-11T14:40:49.523Z,43.17
2023-10-11T14:43:17.807Z,43.28
2023-10-11T14:45:49.599Z,43.65
2023-10-11T14:48:18.620Z,44.61
2023-10-11T14:50:45.872Z,44.37
2023-10-11T14:53:15.426Z,42.21
2023-10-11T14:55:45.330Z,44.34
2023-10-11T14:58:12.305Z,43.70
2023-10-11T15:00:40.400Z,46.04
2023-10-11T15:03:07.601Z,46.04
2023-10-11T15:05:37.895Z,45.78
2023-10-11T15:08:07.826Z,43.72
2023-10-11T15:10:35.934Z,45.22
2023-10-11T15:13:04.507Z,46.54
2023-10-11T15:15:33.504Z,46.74
2023-10-11T15:18:02.910Z,43.26
2023-10-11T15:20:32.277Z,45.48
2023-10-11T15:23:01.673Z,46.47
2023-10-11T15:25:28.792Z,47.86
2023-10-11T15:27:57.579Z,48.35
2023-10-11T15:30:24.220Z,60.95
2023-10-11T15:32:50.995Z,54.26
2023-10-11T15:35:17.730Z,53.77
2023-10-11T15:37:47.601Z,52.04
2023-10-11T15:40:14.702Z,50.74
2023-10-11T15:42:42.665Z,50.99
2023-10-11T15:45:10.422Z,51.12
2023-10-11T15:47:37.707Z,50.51
2023-10-11T15:50:13.449Z,51.37
2023-10-11T15:52:44.028Z,51.76
2023-10-11T15:55:10.824Z,51.84
2023-10-11T15:57:42.426Z,52.59
2023-10-11T16:00:15.089Z,53.36
2023-10-11T16:02:45.768Z,53.65
2023-10-11T16:05:13.850Z,54.44
2023-10-11T16:07:40.352Z,55.32
2023-10-11T16:10:10.836Z,55.68
2023-10-11T16:12:43.848Z,56.07
2023-10-11T16:15:13.273Z,57.71
2023-10-11T16:17:40.596Z,58.95
2023-10-11T16:20:08.419Z,59.54
2023-10-11T16:22:41.690Z,59.82
2023-10-11T16:25:10.488Z,60.60
2023-10-11T16:27:43.581Z,61.29
2023-10-11T16:30:12.569Z,61.19
2023-10-11T16:32:39.232Z,62.44
2023-10-11T16:35:10.474Z,61.74
2023-10-11T16:37:37.536Z,61.74
2023-10-11T16:40:05.452Z,62.38
2023-10-11T16:42:35.436Z,62.38
2023-10-11T16:45:02.366Z,63.55
2023-10-11T16:47:31.770Z,64.70
2023-10-11T16:50:01.353Z,66.09
2023-10-11T16:52:28.652Z,67.38
2023-10-11T16:54:57.662Z,67.75
2023-10-11T16:57:24.691Z,70.41
2023-10-11T16:59:52.656Z,71.03
2023-10-11T17:02:19.683Z,74.14
2023-10-11T17:04:50.380Z,75.04
2023-10-11T17:07:18.752Z,75.36
2023-10-11T17:09:45.317Z,76.24
2023-10-11T17:12:11.916Z,75.70
2023-10-11T17:14:40.143Z,76.72
2023-10-11T17:17:08.016Z,76.36
2023-10-11T17:19:37.215Z,76.55
2023-10-11T17:22:05.675Z,78.47
2023-10-11T17:24:32.507Z,79.38
2023-10-11T17:26:59.354Z,78.76
2023-10-11T17:29:27.148Z,81.61
2023-10-11T17:31:53.806Z,80.42
2023-10-11T17:34:20.402Z,82.82
2023-10-11T17:36:47.842Z,83.44
2023-10-11T17:39:15.089Z,83.93
2023-10-11T17:41:44.126Z,84.82
2023-10-11T17:44:13.303Z,85.44
2023-10-11T17:46:39.989Z,86.09
2023-10-11T17:49:06.949Z,84.93
2023-10-11T17:51:33.813Z,85.95
2023-10-11T17:54:03.488Z,85.33
2023-10-11T17:56:30.299Z,86.63
2023-10-11T17:59:02.634Z,86.17
2023-10-11T18:01:29.523Z,86.98
2023-10-11T18:03:56.146Z,87.39
2023-10-11T18:06:23.540Z,88.36
2023-10-11T18:08:53.683Z,88.22
2023-10-11T18:11:20.336Z,89.22
2023-10-11T18:13:48.651Z,89.51
2023-10-11T18:16:15.350Z,90.02
2023-10-11T18:18:42.065Z,90.09
2023-10-11T18:21:08.758Z,89.35
2023-10-11T18:23:35.466Z,89.15
2023-10-11T18:26:02.074Z,89.84
2023-10-11T18:28:29.074Z,90.42
2023-10-11T18:30:55.739Z,89.68
2023-10-11T18:33:22.454Z,88.53
2023-10-11T18:35:49.075Z,90.50
2023-10-11T18:38:16.472Z,85.59
2023-10-11T18:40:46.685Z,88.78
2023-10-11T18:43:13.528Z,89.85
2023-10-11T18:45:40.932Z,86.11
2023-10-11T18:48:08.018Z,83.30
2023-10-11T18:50:34.610Z,85.44
2023-10-11T18:53:01.981Z,86.20
2023-10-11T18:55:28.753Z,85.93
2023-10-11T18:57:55.746Z,86.31
2023-10-11T19:00:26.056Z,87.22
2023-10-11T19:02:54.191Z,87.64
2023-10-11T19:05:22.600Z,88.44
2023-10-11T19:07:51.798Z,82.15
2023-10-11T19:10:20.020Z,82.38
2023-10-11T19:12:50.652Z,82.18
2023-10-11T19:15:18.760Z,83.42
2023-10-11T19:17:51.988Z,85.15
2023-10-11T19:20:19.897Z,84.02
2023-10-11T19:22:52.694Z,84.39
2023-10-11T19:25:21.903Z,84.96
2023-10-11T19:27:50.397Z,85.70
2023-10-11T19:30:22.727Z,86.56
2023-10-11T19:32:51.254Z,86.55
2023-10-11T19:35:20.470Z,86.65
2023-10-11T19:37:47.033Z,87.03
2023-10-11T19:40:16.969Z,88.04
2023-10-11T19:42:45.495Z,88.35
2023-10-11T19:45:17.369Z,89.12
2023-10-11T19:47:46.937Z,88.22
2023-10-11T19:50:15.507Z,89.15
2023-10-11T19:52:44.711Z,88.86
2023-10-11T19:55:14.490Z,90.81
2023-10-11T19:57:42.503Z,89.77
2023-10-11T20:00:10.302Z,88.69
2023-10-11T20:02:37.323Z,89.62
2023-10-11T20:05:18.927Z,89.11
2023-10-11T20:07:49.801Z,89.43
2023-10-11T20:10:16.853Z,89.38
2023-10-11T20:12:50.362Z,88.89
2023-10-11T20:15:19.070Z,89.81
2023-10-11T20:17:48.219Z,90.32
2023-10-11T20:20:16.933Z,91.43
2023-10-11T20:22:44.646Z,92.55
2023-10-11T20:25:12.681Z,92.04
2023-10-11T20:27:40.681Z,93.14
2023-10-11T20:30:08.908Z,94.41
2023-10-11T20:32:36.622Z,95.10
2023-10-11T20:35:08.313Z,95.02
2023-10-11T20:37:35.924Z,94.98
2023-10-11T20:40:05.886Z,95.32
2023-10-11T20:42:33.215Z,95.83
2023-10-11T20:45:02.320Z,97.27
2023-10-11T20:47:31.946Z,97.69
2023-10-11T20:49:58.520Z,97.64
2023-10-11T20:52:25.122Z,98.01
2023-10-11T20:54:51.894Z,98.46
2023-10-11T20:57:22.381Z,99.56
2023-10-11T20:59:48.958Z,100.00
2023-10-11T21:02:16.173Z,100.00
2023-10-11T21:04:42.785Z,100.00
2023-10-11T21:07:12.062Z,100.00
2023-10-11T21:09:38.654Z,100.00
2023-10-11T21:12:05.578Z,100.00
2023-10-11T21:14:32.120Z,100.00
2023-10-11T21:16:58.690Z,100.00
2023-10-11T21:19:25.279Z,100.00
2023-10-11T21:21:53.767Z,100.00
2023-10-11T21:24:21.127Z,100.00
2023-10-11T21:26:48.974Z,100.00
2023-10-11T21:29:15.632Z,100.00
2023-10-11T21:31:42.354Z,100.00
2023-10-11T21:34:12.313Z,100.00
2023-10-11T21:36:41.119Z,100.00
2023-10-11T21:39:08.747Z,100.00
2023-10-11T21:41:35.422Z,100.00
2023-10-11T21:44:02.065Z,100.00
2023-10-11T21:46:28.648Z,100.00
2023-10-11T21:48:55.252Z,100.00
2023-10-11T21:51:21.850Z,100.00
2023-10-11T21:53:48.408Z,100.00
2023-10-11T21:56:15.006Z,100.00
2023-10-11T21:58:42.154Z,100.00
2023-10-11T22:01:20.850Z,100.00
2023-10-11T22:03:48.972Z,100.00
2023-10-11T22:06:19.263Z,100.00
2023-10-11T22:08:49.802Z,100.00
2023-10-11T22:11:18.054Z,100.00
2023-10-11T22:13:45.700Z,100.00
2023-10-11T22:16:15.452Z,100.00
2023-10-11T22:18:42.267Z,100.00
2023-10-11T22:21:13.405Z,100.00
2023-10-11T22:23:42.322Z,100.00
2023-10-11T22:26:11.252Z,100.00
2023-10-11T22:28:39.959Z,100.00
2023-10-11T22:31:08.854Z,100.00
2023-10-11T22:33:36.050Z,100.00
2023-10-11T22:36:02.716Z,100.00
2023-10-11T22:38:29.268Z,100.00
2023-10-11T22:40:55.793Z,100.00
2023-10-11T22:43:30.333Z,100.00
2023-10-11T22:45:58.293Z,100.00
2023-10-11T22:48:26.029Z,100.00
2023-10-11T22:50:53.507Z,100.00
2023-10-11T22:53:24.175Z,100.00
2023-10-11T22:55:51.586Z,100.00
2023-10-11T22:58:19.813Z,100.00
2023-10-11T23:00:47.240Z,100.00
2023-10-11T23:03:13.934Z,100.00
2023-10-11T23:05:41.841Z,100.00
2023-10-11T23:08:10.193Z,100.00
2023-10-11T23:10:44.077Z,100.00
2023-10-11T23:13:10.949Z,100.00
2023-10-11T23:15:52.964Z,100.00
2023-10-11T23:18:29.583Z,100.00
2023-10-11T23:21:01.150Z,100.00
2023-10-11T23:23:41.838Z,100.00
2023-10-11T23:26:13.703Z,100.00
2023-10-11T23:28:41.457Z,100.00
2023-10-11T23:31:09.943Z,100.00
2023-10-11T23:33:49.473Z,100.00
2023-10-11T23:36:23.793Z,100.00
2023-10-11T23:39:02.951Z,100.00
2023-10-11T23:41:37.457Z,100.00
2023-10-11T23:44:19.297Z,100.00
2023-10-11T23:47:00.799Z,100.00
2023-10-11T23:49:41.775Z,100.00
2023-10-11T23:52:14.251Z,100.00
2023-10-11T23:54:42.888Z,100.00
2023-10-11T23:57:38.862Z,100.00
